createdAt,value
2023-01-19T00:00:36.475Z,10.90
2023-01-19T00:03:04.183Z,7.47
2023-01-19T00:05:31.100Z,13.95
2023-01-19T00:07:58.470Z,22.00
2023-01-19T00:10:28.929Z,13.80
2023-01-19T00:12:56.709Z,22.67
2023-01-19T00:15:23.643Z,9.23
2023-01-19T00:17:50.355Z,13.88
2023-01-19T00:20:17.543Z,18.58
2023-01-19T00:22:44.240Z,14.30
2023-01-19T00:25:10.994Z,13.55
2023-01-19T00:27:39.047Z,12.52
2023-01-19T00:30:07.263Z,13.57
2023-01-19T00:32:34.036Z,17.60
2023-01-19T00:35:00.866Z,19.63
2023-01-19T00:37:27.947Z,11.63
2023-01-19T00:39:54.691Z,11.88
2023-01-19T00:42:21.416Z,12.45
2023-01-19T00:44:49.520Z,7.97
2023-01-19T00:47:16.308Z,14.67
2023-01-19T00:49:44.086Z,13.43
2023-01-19T00:52:10.811Z,13.13
2023-01-19T00:54:37.577Z,15.23
2023-01-19T00:57:04.363Z,21.10
2023-01-19T00:59:32.063Z,20.77
2023-01-19T01:02:00.744Z,15.00
2023-01-19T01:04:27.941Z,10.18
2023-01-19T01:06:54.629Z,14.40
2023-01-19T01:09:21.575Z,12.82
2023-01-19T01:11:48.315Z,13.65
2023-01-19T01:14:15.297Z,10.45
2023-01-19T01:16:42.138Z,11.32
2023-01-19T01:19:12.932Z,12.82
2023-01-19T01:21:39.658Z,9.52
2023-01-19T01:24:09.798Z,8.38
2023-01-19T01:26:36.612Z,12.93
2023-01-19T01:29:04.618Z,15.52
2023-01-19T01:31:31.347Z,10.73
2023-01-19T01:33:58.115Z,10.32
2023-01-19T01:36:26.201Z,10.85
2023-01-19T01:38:52.903Z,9.17
2023-01-19T01:41:21.137Z,17.42
2023-01-19T01:43:50.448Z,14.32
2023-01-19T01:46:18.088Z,14.82
2023-01-19T01:48:50.618Z,10.85
2023-01-19T01:51:23.227Z,15.15
2023-01-19T01:53:56.974Z,8.68
2023-01-19T01:56:29.081Z,15.45
2023-01-19T01:58:56.132Z,14.38
2023-01-19T02:01:22.979Z,17.92
2023-01-19T02:03:50.676Z,12.93
2023-01-19T02:06:17.624Z,16.38
2023-01-19T02:08:54.730Z,13.05
2023-01-19T02:11:22.420Z,7.70
2023-01-19T02:13:49.375Z,14.18
2023-01-19T02:16:17.377Z,15.38
2023-01-19T02:18:44.698Z,14.27
2023-01-19T02:21:16.861Z,16.40
2023-01-19T02:23:47.111Z,11.73
2023-01-19T02:26:17.442Z,16.02
2023-01-19T02:28:48.430Z,13.30
2023-01-19T02:31:15.171Z,11.73
2023-01-19T02:33:42.046Z,11.75
2023-01-19T02:36:11.645Z,8.55
2023-01-19T02:38:41.179Z,7.32
2023-01-19T02:41:12.107Z,8.23
2023-01-19T02:43:40.614Z,16.17
2023-01-19T02:46:08.991Z,8.52
2023-01-19T02:48:35.745Z,12.82
2023-01-19T02:51:11.359Z,8.90
2023-01-19T02:53:49.688Z,6.97
2023-01-19T02:56:50.559Z,11.55
2023-01-19T02:59:28.813Z,8.35
2023-01-19T03:02:22.196Z,11.20
2023-01-19T03:04:58.710Z,7.57
2023-01-19T03:07:34.411Z,8.73
2023-01-19T03:10:07.062Z,8.38
2023-01-19T03:12:43.935Z,9.07
2023-01-19T03:15:18.286Z,7.35
2023-01-19T03:17:48.456Z,3.67
2023-01-19T03:20:18.170Z,2.40
2023-01-19T03:22:48.178Z,2.28
2023-01-19T03:25:16.615Z,4.47
2023-01-19T03:27:46.807Z,3.78
2023-01-19T03:30:17.677Z,2.72
2023-01-19T03:32:49.377Z,1.80
2023-01-19T03:35:18.802Z,3.25
2023-01-19T03:37:50.518Z,2.38
2023-01-19T03:40:17.620Z,2.45
2023-01-19T03:42:47.144Z,6.10
2023-01-19T03:45:14.480Z,4.63
2023-01-19T03:47:41.609Z,2.40
2023-01-19T03:50:18.175Z,1.67
2023-01-19T03:52:44.900Z,3.13
2023-01-19T03:55:11.752Z,2.30
2023-01-19T03:57:38.531Z,2.35
2023-01-19T04:00:08.225Z,2.55
2023-01-19T04:02:34.970Z,1.42
2023-01-19T04:05:01.682Z,1.80
2023-01-19T04:07:28.402Z,0.80
2023-01-19T04:09:55.130Z,2.50
2023-01-19T04:12:21.876Z,0.70
2023-01-19T04:14:48.621Z,1.75
2023-01-19T04:17:16.714Z,1.33
2023-01-19T04:19:43.442Z,1.13
2023-01-19T04:22:10.196Z,2.85
2023-01-19T04:24:36.923Z,1.05
2023-01-19T04:27:03.718Z,0.30
2023-01-19T04:29:30.462Z,1.75
2023-01-19T04:31:57.157Z,1.10
2023-01-19T04:34:25.223Z,0.95
2023-01-19T04:36:52.000Z,2.27
2023-01-19T04:39:18.755Z,2.65
2023-01-19T04:41:45.527Z,1.88
2023-01-19T04:44:12.229Z,1.35
2023-01-19T04:46:38.979Z,2.45
2023-01-19T04:49:05.800Z,6.10
2023-01-19T04:51:33.888Z,2.58
2023-01-19T04:54:00.687Z,0.80
2023-01-19T04:56:27.638Z,2.53
2023-01-19T04:58:54.414Z,1.95
2023-01-19T05:01:21.371Z,1.45
2023-01-19T05:03:48.219Z,3.20
2023-01-19T05:06:15.085Z,3.15
2023-01-19T05:08:45.246Z,2.42
2023-01-19T05:11:12.211Z,1.08
2023-01-19T05:13:39.060Z,1.35
2023-01-19T05:16:06.863Z,2.15
2023-01-19T05:18:33.585Z,1.95
2023-01-19T05:21:01.684Z,1.02
2023-01-19T05:23:28.414Z,2.20
2023-01-19T05:25:56.461Z,1.55
2023-01-19T05:28:23.178Z,2.20
2023-01-19T05:30:49.996Z,4.80
2023-01-19T05:33:16.766Z,7.60
2023-01-19T05:35:43.568Z,3.30
2023-01-19T05:38:10.351Z,3.03
2023-01-19T05:40:37.126Z,5.47
2023-01-19T05:43:05.557Z,7.00
2023-01-19T05:45:32.744Z,0.80
2023-01-19T05:47:59.510Z,5.93
2023-01-19T05:50:26.579Z,4.75
2023-01-19T05:52:53.799Z,7.28
2023-01-19T05:55:21.002Z,5.03
2023-01-19T05:57:47.765Z,4.57
2023-01-19T06:00:16.714Z,5.05
2023-01-19T06:05:10.350Z,6.72
2023-01-19T06:07:37.081Z,4.55
2023-01-19T06:10:04.386Z,5.70
2023-01-19T06:12:31.186Z,2.83
2023-01-19T06:14:57.983Z,2.47
2023-01-19T06:17:27.199Z,1.63
2023-01-19T06:19:54.045Z,11.95
2023-01-19T06:22:20.785Z,6.95
2023-01-19T06:24:47.511Z,6.38
2023-01-19T06:27:14.279Z,4.22
2023-01-19T06:29:41.060Z,7.43
2023-01-19T06:32:07.787Z,8.13
2023-01-19T06:34:35.910Z,5.43
2023-01-19T06:37:02.682Z,5.30
2023-01-19T06:39:29.388Z,3.78
2023-01-19T06:41:56.078Z,5.10
2023-01-19T06:44:22.820Z,3.78
2023-01-19T06:46:49.788Z,6.13
2023-01-19T06:49:16.549Z,4.82
2023-01-19T06:51:44.599Z,4.75
2023-01-19T06:54:11.502Z,4.47
2023-01-19T06:56:38.187Z,6.43
2023-01-19T06:59:05.559Z,5.68
2023-01-19T07:01:32.557Z,6.85
2023-01-19T07:03:59.455Z,6.35
2023-01-19T07:06:26.873Z,4.85
2023-01-19T07:08:55.558Z,3.63
2023-01-19T07:11:30.239Z,7.43
2023-01-19T07:13:59.704Z,6.13
2023-01-19T07:16:26.503Z,6.45
2023-01-19T07:18:53.331Z,2.65
2023-01-19T07:21:20.254Z,4.20
2023-01-19T07:23:48.583Z,5.40
2023-01-19T07:26:16.890Z,8.43
2023-01-19T07:28:43.771Z,4.85
2023-01-19T07:31:10.859Z,3.50
2023-01-19T07:33:37.648Z,8.02
2023-01-19T07:36:04.598Z,6.50
2023-01-19T07:38:31.446Z,7.88
2023-01-19T07:41:01.455Z,6.03
2023-01-19T07:43:29.619Z,4.90
2023-01-19T07:45:56.654Z,5.50
2023-01-19T07:48:23.526Z,9.38
2023-01-19T07:50:50.306Z,10.85
2023-01-19T07:53:17.579Z,9.93
2023-01-19T07:55:44.504Z,8.95
2023-01-19T07:58:11.267Z,8.63
2023-01-19T08:00:39.377Z,11.52
2023-01-19T08:03:06.430Z,14.20
2023-01-19T08:05:33.505Z,15.43
2023-01-19T08:08:00.256Z,13.98
2023-01-19T08:10:28.237Z,11.70
2023-01-19T08:12:55.983Z,12.73
2023-01-19T08:15:23.964Z,11.48
2023-01-19T08:18:00.224Z,11.37
2023-01-19T08:20:28.360Z,15.85
2023-01-19T08:22:55.603Z,17.35
2023-01-19T08:25:22.328Z,17.80
2023-01-19T08:27:49.058Z,20.25
2023-01-19T08:30:16.631Z,16.63
2023-01-19T08:32:43.431Z,12.27
2023-01-19T08:35:11.543Z,10.07
2023-01-19T08:37:39.405Z,13.65
2023-01-19T08:40:07.937Z,12.30
2023-01-19T08:42:34.664Z,13.07
2023-01-19T08:45:01.366Z,13.15
2023-01-19T08:47:29.199Z,13.80
2023-01-19T08:49:56.038Z,13.38
2023-01-19T08:52:24.104Z,15.88
2023-01-19T08:54:50.806Z,14.13
2023-01-19T08:57:17.553Z,16.00
2023-01-19T08:59:44.298Z,15.50
2023-01-19T09:02:11.207Z,20.55
2023-01-19T09:04:37.983Z,11.05
2023-01-19T09:09:37.923Z,9.55
2023-01-19T09:12:05.013Z,8.27
2023-01-19T09:14:31.883Z,10.98
2023-01-19T09:16:58.635Z,9.98
2023-01-19T09:19:25.456Z,10.85
2023-01-19T09:21:54.012Z,7.28
2023-01-19T09:24:21.115Z,10.85
2023-01-19T09:26:49.179Z,12.10
2023-01-19T09:29:18.999Z,12.03
2023-01-19T09:31:45.795Z,10.77
2023-01-19T09:34:12.590Z,10.23
2023-01-19T09:36:39.291Z,9.48
2023-01-19T09:39:06.114Z,10.77
2023-01-19T09:41:35.126Z,13.55
2023-01-19T09:46:35.313Z,7.13
2023-01-19T09:49:05.721Z,8.90
2023-01-19T09:51:36.006Z,7.80
2023-01-19T09:54:10.849Z,13.02
2023-01-19T09:56:37.964Z,11.85
2023-01-19T09:59:19.153Z,5.07
2023-01-19T10:01:57.384Z,9.60
2023-01-19T10:04:31.037Z,8.30
2023-01-19T10:07:07.959Z,13.85
2023-01-19T10:09:44.398Z,12.38
2023-01-19T10:12:19.729Z,12.93
2023-01-19T10:14:59.020Z,11.55
2023-01-19T10:17:38.460Z,11.23
2023-01-19T10:20:16.406Z,17.52
2023-01-19T10:22:47.469Z,9.73
2023-01-19T10:25:19.079Z,14.00
2023-01-19T10:27:46.295Z,13.68
2023-01-19T10:30:21.429Z,11.77
2023-01-19T10:32:48.401Z,12.65
2023-01-19T10:35:16.769Z,20.30
2023-01-19T10:37:43.692Z,14.60
2023-01-19T10:40:22.581Z,18.00
2023-01-19T10:42:49.269Z,25.02
2023-01-19T10:45:19.779Z,17.67
2023-01-19T10:47:48.958Z,11.52
2023-01-19T10:50:26.010Z,16.35
2023-01-19T10:52:55.105Z,18.17
2023-01-19T10:57:53.728Z,14.15
2023-01-19T11:00:36.545Z,15.75
2023-01-19T11:03:04.845Z,18.63
2023-01-19T11:05:33.816Z,13.55
2023-01-19T11:08:00.571Z,19.23
2023-01-19T11:10:29.136Z,18.80
2023-01-19T11:12:59.854Z,11.85
2023-01-19T11:15:33.487Z,18.77
2023-01-19T11:18:01.635Z,11.05
2023-01-19T11:20:30.584Z,14.53
2023-01-19T11:23:17.719Z,12.07
2023-01-19T11:25:47.248Z,15.20
2023-01-19T11:28:18.759Z,15.43
2023-01-19T11:30:57.529Z,18.15
2023-01-19T11:33:25.856Z,16.08
2023-01-19T11:36:02.598Z,16.48
2023-01-19T11:38:29.346Z,14.68
2023-01-19T11:40:58.345Z,18.17
2023-01-19T11:46:02.673Z,17.50
2023-01-19T11:48:33.269Z,14.05
2023-01-19T11:51:04.252Z,14.90
2023-01-19T11:53:33.721Z,16.90
2023-01-19T11:56:03.288Z,13.02
2023-01-19T11:58:32.235Z,10.98
2023-01-19T12:01:06.142Z,14.38
2023-01-19T12:03:37.077Z,11.30
2023-01-19T12:06:06.788Z,12.60
2023-01-19T12:08:36.792Z,10.32
2023-01-19T12:11:05.372Z,10.80
2023-01-19T12:13:33.598Z,8.75
2023-01-19T12:16:06.071Z,11.23
2023-01-19T12:18:37.407Z,12.32
2023-01-19T12:21:04.525Z,15.38
2023-01-19T12:23:46.275Z,10.48
2023-01-19T12:26:33.925Z,13.50
2023-01-19T12:29:06.851Z,13.65
2023-01-19T12:31:35.195Z,5.68
2023-01-19T12:34:38.224Z,15.77
2023-01-19T12:37:07.244Z,11.13
2023-01-19T12:42:13.176Z,6.95
2023-01-19T12:44:41.451Z,10.90
2023-01-19T12:47:20.884Z,12.52
2023-01-19T12:49:53.597Z,11.45
2023-01-19T12:52:25.884Z,9.00
2023-01-19T12:55:00.473Z,11.25
2023-01-19T12:57:31.773Z,10.82
2023-01-19T13:00:00.066Z,4.72
2023-01-19T13:02:43.676Z,15.27
2023-01-19T13:05:45.295Z,11.35
2023-01-19T13:08:20.918Z,6.38
2023-01-19T13:11:13.845Z,9.63
2023-01-19T13:13:42.586Z,9.98
2023-01-19T13:16:52.635Z,8.32
2023-01-19T13:19:36.863Z,10.20
2023-01-19T13:22:37.031Z,6.78
2023-01-19T13:25:10.224Z,11.07
2023-01-19T13:27:38.062Z,7.55
2023-01-19T13:30:11.493Z,13.73
2023-01-19T13:32:40.976Z,9.82
2023-01-19T13:35:14.392Z,11.10
2023-01-19T13:37:45.192Z,10.70
2023-01-19T13:40:20.332Z,15.85
2023-01-19T13:42:48.488Z,10.70
2023-01-19T13:45:32.602Z,9.37
2023-01-19T13:48:01.335Z,7.70
2023-01-19T13:50:31.841Z,10.52
2023-01-19T13:52:59.260Z,10.32
2023-01-19T13:55:27.578Z,9.10
2023-01-19T13:57:54.837Z,8.88
2023-01-19T14:00:24.187Z,7.07
2023-01-19T14:02:54.795Z,4.60
2023-01-19T14:05:23.945Z,6.32
2023-01-19T14:08:02.097Z,6.43
2023-01-19T14:10:35.520Z,6.78
2023-01-19T14:13:19.808Z,5.20
2023-01-19T14:15:54.542Z,4.75
2023-01-19T14:18:27.499Z,6.57
2023-01-19T14:20:57.630Z,3.42
2023-01-19T14:23:44.969Z,4.43
2023-01-19T14:26:39.393Z,5.38
2023-01-19T14:29:14.238Z,7.30
2023-01-19T14:31:44.132Z,8.80
2023-01-19T14:34:29.380Z,7.22
2023-01-19T14:36:56.552Z,4.50
2023-01-19T14:39:27.811Z,6.82
2023-01-19T14:41:58.382Z,3.92
2023-01-19T14:44:30.491Z,5.40
2023-01-19T14:46:58.005Z,5.00
2023-01-19T14:49:34.451Z,4.72
2023-01-19T14:52:02.486Z,6.03
2023-01-19T14:54:34.558Z,5.60
2023-01-19T14:57:01.505Z,11.18
2023-01-19T14:59:28.275Z,11.35
2023-01-19T15:01:55.140Z,13.25
2023-01-19T15:04:22.113Z,12.75
2023-01-19T15:06:49.025Z,11.70
2023-01-19T15:09:16.382Z,15.05
2023-01-19T15:11:48.287Z,18.98
2023-01-19T15:14:16.868Z,14.77
2023-01-19T15:16:44.008Z,12.95
2023-01-19T15:19:15.258Z,15.60
2023-01-19T15:21:42.323Z,17.80
2023-01-19T15:24:09.850Z,19.67
2023-01-19T15:26:38.073Z,15.68
2023-01-19T15:29:16.276Z,18.65
2023-01-19T15:31:43.187Z,21.15
2023-01-19T15:34:12.506Z,20.08
2023-01-19T15:36:39.261Z,14.00
2023-01-19T15:39:06.004Z,15.38
2023-01-19T15:41:33.021Z,24.08
2023-01-19T15:43:59.962Z,27.13
2023-01-19T15:46:28.258Z,15.60
2023-01-19T15:48:55.033Z,21.83
2023-01-19T15:51:24.589Z,23.02
2023-01-19T15:53:51.671Z,21.35
2023-01-19T15:56:20.762Z,24.13
2023-01-19T16:01:15.523Z,20.13
2023-01-19T16:03:43.943Z,24.45
2023-01-19T16:06:10.859Z,20.95
2023-01-19T16:08:37.890Z,18.85
2023-01-19T16:11:05.872Z,20.25
2023-01-19T16:13:32.651Z,22.55
2023-01-19T16:16:02.554Z,20.17
2023-01-19T16:18:29.283Z,20.23
2023-01-19T16:20:57.401Z,15.05
2023-01-19T16:23:24.604Z,17.43
2023-01-19T16:25:58.839Z,6.53
2023-01-19T16:28:26.571Z,15.70
2023-01-19T16:30:53.669Z,15.98
2023-01-19T16:33:20.485Z,15.38
2023-01-19T16:35:47.302Z,10.32
2023-01-19T16:38:15.742Z,19.02
2023-01-19T16:40:44.562Z,19.15
2023-01-19T16:43:11.869Z,19.35
2023-01-19T16:45:56.868Z,23.55
2023-01-19T16:48:23.678Z,19.23
2023-01-19T16:50:58.945Z,18.73
2023-01-19T16:53:27.279Z,19.65
2023-01-19T16:55:54.175Z,17.02
2023-01-19T16:58:21.215Z,23.60
2023-01-19T17:00:47.993Z,22.27
2023-01-19T17:03:14.794Z,20.10
2023-01-19T17:05:47.653Z,28.05
2023-01-19T17:08:14.379Z,28.48
2023-01-19T17:10:42.546Z,26.20
2023-01-19T17:13:09.290Z,25.73
2023-01-19T17:15:36.251Z,29.05
2023-01-19T17:18:03.184Z,31.48
2023-01-19T17:20:29.934Z,19.50
2023-01-19T17:22:56.713Z,23.45
2023-01-19T17:25:23.456Z,33.92
2023-01-19T17:27:53.008Z,30.25
2023-01-19T17:30:20.027Z,30.50
2023-01-19T17:32:46.823Z,25.67
2023-01-19T17:35:13.552Z,36.58
2023-01-19T17:37:40.341Z,21.33
2023-01-19T17:40:08.326Z,34.35
2023-01-19T17:42:39.300Z,34.67
2023-01-19T17:45:08.543Z,31.60
2023-01-19T17:47:35.268Z,22.90
2023-01-19T17:50:02.004Z,29.98
2023-01-19T17:52:28.775Z,38.13
2023-01-19T17:54:55.516Z,30.77
2023-01-19T17:57:22.268Z,22.63
2023-01-19T17:59:49.022Z,33.53
2023-01-19T18:02:17.253Z,27.33
2023-01-19T18:04:44.125Z,15.88
2023-01-19T18:07:10.890Z,29.02
2023-01-19T18:09:37.922Z,29.85
2023-01-19T18:12:05.090Z,33.78
2023-01-19T18:14:31.817Z,38.85
2023-01-19T18:16:58.585Z,29.70
2023-01-19T18:19:26.717Z,32.28
2023-01-19T18:21:53.503Z,29.40
2023-01-19T18:24:20.329Z,34.38
2023-01-19T18:26:47.059Z,31.75
2023-01-19T18:29:13.777Z,26.73
2023-01-19T18:31:40.551Z,35.13
2023-01-19T18:34:07.272Z,31.00
2023-01-19T18:36:35.371Z,40.78
2023-01-19T18:39:02.416Z,31.55
2023-01-19T18:41:29.912Z,27.52
2023-01-19T18:43:57.451Z,27.60
2023-01-19T18:46:24.406Z,39.60
2023-01-19T18:48:51.444Z,30.25
2023-01-19T18:51:19.756Z,34.92
2023-01-19T18:53:47.924Z,41.28
2023-01-19T18:56:15.965Z,33.30
2023-01-19T18:58:43.946Z,33.63
2023-01-19T19:01:20.123Z,35.00
2023-01-19T19:03:47.143Z,37.45
2023-01-19T19:06:14.324Z,34.78
2023-01-19T19:08:41.098Z,40.10
2023-01-19T19:11:09.758Z,45.05
2023-01-19T19:13:36.598Z,32.13
2023-01-19T19:16:04.378Z,37.40
2023-01-19T19:18:31.487Z,32.28
2023-01-19T19:20:58.259Z,26.00
2023-01-19T19:23:25.365Z,32.72
2023-01-19T19:25:52.137Z,37.28
2023-01-19T19:28:20.276Z,30.63
2023-01-19T19:30:47.065Z,35.33
2023-01-19T19:33:13.822Z,35.17
2023-01-19T19:35:40.597Z,38.95
2023-01-19T19:38:07.378Z,38.10
2023-01-19T19:40:34.113Z,38.63
2023-01-19T19:43:00.824Z,41.10
2023-01-19T19:45:28.920Z,48.60
2023-01-19T19:47:55.645Z,42.08
2023-01-19T19:50:22.423Z,41.55
2023-01-19T19:52:49.136Z,40.50
2023-01-19T19:55:16.148Z,37.72
2023-01-19T19:57:42.922Z,49.97
2023-01-19T20:00:11.099Z,43.25
2023-01-19T20:02:39.470Z,34.72
2023-01-19T20:05:06.655Z,45.53
2023-01-19T20:07:33.516Z,42.33
2023-01-19T20:10:00.302Z,39.90
2023-01-19T20:12:27.069Z,42.33
2023-01-19T20:14:53.860Z,44.35
2023-01-19T20:17:20.585Z,45.08
2023-01-19T20:19:48.711Z,37.28
2023-01-19T20:22:15.772Z,35.10
2023-01-19T20:24:42.517Z,38.00
2023-01-19T20:27:09.367Z,44.25
2023-01-19T20:29:36.182Z,42.30
2023-01-19T20:32:02.926Z,35.30
2023-01-19T20:34:33.382Z,38.45
2023-01-19T20:37:04.383Z,36.20
2023-01-19T20:39:31.157Z,37.63
2023-01-19T20:41:58.053Z,44.90
2023-01-19T20:44:26.055Z,42.67
2023-01-19T20:46:53.752Z,39.87
2023-01-19T20:49:21.115Z,40.05
2023-01-19T20:51:48.329Z,36.92
2023-01-19T20:54:18.434Z,45.70
2023-01-19T20:56:45.307Z,35.08
2023-01-19T20:59:13.416Z,32.92
2023-01-19T21:01:41.130Z,48.57
2023-01-19T21:04:08.530Z,44.03
2023-01-19T21:06:36.078Z,40.53
2023-01-19T21:11:46.491Z,43.28
2023-01-19T21:14:13.249Z,49.93
2023-01-19T21:16:40.012Z,35.50
2023-01-19T21:19:06.778Z,40.63
2023-01-19T21:21:33.660Z,45.33
2023-01-19T21:24:02.387Z,38.60
2023-01-19T21:26:30.118Z,42.35
2023-01-19T21:28:58.847Z,53.38
2023-01-19T21:31:27.791Z,34.58
2023-01-19T21:33:54.889Z,42.30
2023-01-19T21:36:21.672Z,43.72
2023-01-19T21:38:48.525Z,32.63
2023-01-19T21:41:15.272Z,50.35
2023-01-19T21:43:42.495Z,49.85
2023-01-19T21:46:11.623Z,48.25
2023-01-19T21:48:38.515Z,39.20
2023-01-19T21:51:05.729Z,51.65
2023-01-19T21:53:32.457Z,51.40
2023-01-19T21:55:59.282Z,44.72
2023-01-19T21:58:26.338Z,46.50
2023-01-19T22:00:59.187Z,43.45
2023-01-19T22:03:28.487Z,47.80
2023-01-19T22:05:55.445Z,31.55
2023-01-19T22:08:22.312Z,34.35
2023-01-19T22:10:49.287Z,28.23
2023-01-19T22:13:16.079Z,21.30
2023-01-19T22:15:42.859Z,32.90
2023-01-19T22:18:10.501Z,23.92
2023-01-19T22:20:38.794Z,22.38
2023-01-19T22:23:05.582Z,24.13
2023-01-19T22:25:33.173Z,23.95
2023-01-19T22:27:59.965Z,14.00
2023-01-19T22:30:26.938Z,12.18
2023-01-19T22:32:53.773Z,13.65
2023-01-19T22:35:20.511Z,18.35
2023-01-19T22:37:48.699Z,29.80
2023-01-19T22:40:15.812Z,22.70
2023-01-19T22:42:45.812Z,17.45
2023-01-19T22:45:12.953Z,11.93
2023-01-19T22:47:39.897Z,19.65
2023-01-19T22:50:08.036Z,18.92
2023-01-19T22:52:34.806Z,17.67
2023-01-19T22:55:03.171Z,16.50
2023-01-19T22:57:32.371Z,13.52
2023-01-19T22:59:59.140Z,15.38
2023-01-19T23:02:27.565Z,21.35
2023-01-19T23:04:55.464Z,23.38
2023-01-19T23:07:22.299Z,18.73
2023-01-19T23:09:49.075Z,22.00
2023-01-19T23:12:17.200Z,25.58
2023-01-19T23:14:44.120Z,21.67
2023-01-19T23:17:10.858Z,24.83
2023-01-19T23:19:37.606Z,24.58
2023-01-19T23:22:04.523Z,36.08
2023-01-19T23:24:33.352Z,28.58
2023-01-19T23:27:00.357Z,44.55
2023-01-19T23:29:29.570Z,43.67
2023-01-19T23:31:56.291Z,36.17
2023-01-19T23:34:23.213Z,50.63
2023-01-19T23:36:50.000Z,46.72
2023-01-19T23:39:19.087Z,41.63
2023-01-19T23:41:46.287Z,36.65
2023-01-19T23:44:13.340Z,38.28
2023-01-19T23:46:41.649Z,46.65
2023-01-19T23:49:08.668Z,40.70
2023-01-19T23:51:35.417Z,30.88
2023-01-19T23:54:02.261Z,40.47
2023-01-19T23:56:32.569Z,45.47
2023-01-19T23:59:01.381Z,39.85
